sensor_id;sensor_type;location;lat;lon;timestamp;temperature;humidity
16968;DHT22;64862;54.398;10.126;2023-04-02T00:01:22;4.30;99.90
16968;DHT22;64862;54.398;10.126;2023-04-02T00:11:29;4.40;99.90
16968;DHT22;64862;54.398;10.126;2023-04-02T00:21:35;4.30;99.90
16968;DHT22;64862;54.398;10.126;2023-04-02T00:31:41;4.30;99.90
16968;DHT22;64862;54.398;10.126;2023-04-02T00:41:45;4.20;99.90
16968;DHT22;64862;54.398;10.126;2023-04-02T00:51:52;4.20;99.90
16968;DHT22;64862;54.398;10.126;2023-04-02T01:02:18;4.20;99.90
16968;DHT22;64862;54.398;10.126;2023-04-02T01:12:43;4.10;99.90
16968;DHT22;64862;54.398;10.126;2023-04-02T01:22:52;4.10;99.90
16968;DHT22;64862;54.398;10.126;2023-04-02T01:32:59;4.10;99.90
16968;DHT22;64862;54.398;10.126;2023-04-02T01:43:09;4.10;99.90
16968;DHT22;64862;54.398;10.126;2023-04-02T01:53:17;4.00;99.90
16968;DHT22;64862;54.398;10.126;2023-04-02T02:03:21;4.00;99.90
16968;DHT22;64862;54.398;10.126;2023-04-02T02:13:26;4.00;99.90
16968;DHT22;64862;54.398;10.126;2023-04-02T02:23:30;4.00;99.90
16968;DHT22;64862;54.398;10.126;2023-04-02T02:33:37;4.00;99.90
16968;DHT22;64862;54.398;10.126;2023-04-02T02:43:52;4.00;99.90
16968;DHT22;64862;54.398;10.126;2023-04-02T02:54:01;4.00;99.90
16968;DHT22;64862;54.398;10.126;2023-04-02T03:04:04;4.00;99.90
16968;DHT22;64862;54.398;10.126;2023-04-02T03:14:17;4.00;99.90
16968;DHT22;64862;54.398;10.126;2023-04-02T03:24:31;3.80;99.90
16968;DHT22;64862;54.398;10.126;2023-04-02T03:34:38;3.80;99.90
16968;DHT22;64862;54.398;10.126;2023-04-02T03:44:46;3.70;99.90
16968;DHT22;64862;54.398;10.126;2023-04-02T03:54:53;3.80;99.90
16968;DHT22;64862;54.398;10.126;2023-04-02T04:04:58;3.70;99.90
16968;DHT22;64862;54.398;10.126;2023-04-02T04:15:06;3.70;99.90
16968;DHT22;64862;54.398;10.126;2023-04-02T04:25:19;3.70;99.90
16968;DHT22;64862;54.398;10.126;2023-04-02T04:35:29;3.60;99.90
16968;DHT22;64862;54.398;10.126;2023-04-02T04:45:40;3.70;99.90
16968;DHT22;64862;54.398;10.126;2023-04-02T04:55:47;3.70;99.90
16968;DHT22;64862;54.398;10.126;2023-04-02T05:05:50;3.70;99.90
16968;DHT22;64862;54.398;10.126;2023-04-02T05:15:59;3.60;99.90
16968;DHT22;64862;54.398;10.126;2023-04-02T05:26:08;3.60;99.90
16968;DHT22;64862;54.398;10.126;2023-04-02T05:36:20;3.70;99.90
16968;DHT22;64862;54.398;10.126;2023-04-02T05:46:30;3.70;99.90
16968;DHT22;64862;54.398;10.126;2023-04-02T05:56:41;3.80;99.90
16968;DHT22;64862;54.398;10.126;2023-04-02T06:06:48;3.90;99.90
16968;DHT22;64862;54.398;10.126;2023-04-02T06:16:54;4.00;99.90
16968;DHT22;64862;54.398;10.126;2023-04-02T06:27:01;4.20;99.90
16968;DHT22;64862;54.398;10.126;2023-04-02T06:37:16;4.80;99.90
16968;DHT22;64862;54.398;10.126;2023-04-02T06:47:29;5.10;99.90
16968;DHT22;64862;54.398;10.126;2023-04-02T06:57:34;5.50;99.90
16968;DHT22;64862;54.398;10.126;2023-04-02T07:07:37;5.60;99.90
16968;DHT22;64862;54.398;10.126;2023-04-02T07:17:44;5.30;99.90
16968;DHT22;64862;54.398;10.126;2023-04-02T07:27:46;5.60;99.90
16968;DHT22;64862;54.398;10.126;2023-04-02T07:37:50;5.90;99.90
16968;DHT22;64862;54.398;10.126;2023-04-02T07:47:53;5.90;99.90
16968;DHT22;64862;54.398;10.126;2023-04-02T07:57:58;6.10;99.90
16968;DHT22;64862;54.398;10.126;2023-04-02T08:08:00;6.60;99.90
16968;DHT22;64862;54.398;10.126;2023-04-02T08:18:04;6.80;99.90
16968;DHT22;64862;54.398;10.126;2023-04-02T08:28:07;8.40;99.90
16968;DHT22;64862;54.398;10.126;2023-04-02T08:38:12;9.00;99.90
16968;DHT22;64862;54.398;10.126;2023-04-02T08:48:18;10.50;99.90
16968;DHT22;64862;54.398;10.126;2023-04-02T08:58:31;11.00;99.90
16968;DHT22;64862;54.398;10.126;2023-04-02T09:08:38;12.70;99.90
16968;DHT22;64862;54.398;10.126;2023-04-02T09:18:43;12.90;99.90
16968;DHT22;64862;54.398;10.126;2023-04-02T09:28:48;12.10;99.90
16968;DHT22;64862;54.398;10.126;2023-04-02T09:39:02;12.60;99.90
16968;DHT22;64862;54.398;10.126;2023-04-02T09:49:12;12.30;99.90
16968;DHT22;64862;54.398;10.126;2023-04-02T09:59:19;14.20;99.90
16968;DHT22;64862;54.398;10.126;2023-04-02T10:09:26;14.70;99.90
16968;DHT22;64862;54.398;10.126;2023-04-02T10:19:34;12.60;99.90
16968;DHT22;64862;54.398;10.126;2023-04-02T10:29:47;14.00;99.90
16968;DHT22;64862;54.398;10.126;2023-04-02T10:40:02;12.50;99.90
16968;DHT22;64862;54.398;10.126;2023-04-02T10:50:25;13.70;99.90
16968;DHT22;64862;54.398;10.126;2023-04-02T11:00:31;13.80;99.90
16968;DHT22;64862;54.398;10.126;2023-04-02T11:10:38;13.60;99.90
16968;DHT22;64862;54.398;10.126;2023-04-02T11:31:20;8.10;99.90
16968;DHT22;64862;54.398;10.126;2023-04-02T11:42:01;7.70;99.90
16968;DHT22;64862;54.398;10.126;2023-04-02T11:52:22;7.60;99.90
16968;DHT22;64862;54.398;10.126;2023-04-02T12:02:35;7.40;99.90
16968;DHT22;64862;54.398;10.126;2023-04-02T12:12:42;6.90;99.90
16968;DHT22;64862;54.398;10.126;2023-04-02T12:22:48;6.90;99.90
16968;DHT22;64862;54.398;10.126;2023-04-02T12:32:52;6.80;99.90
16968;DHT22;64862;54.398;10.126;2023-04-02T12:42:58;6.90;99.90
16968;DHT22;64862;54.398;10.126;2023-04-02T12:53:17;7.00;99.90
16968;DHT22;64862;54.398;10.126;2023-04-02T13:03:22;7.00;99.90
16968;DHT22;64862;54.398;10.126;2023-04-02T13:13:27;6.80;99.90
16968;DHT22;64862;54.398;10.126;2023-04-02T13:23:34;6.70;99.90
16968;DHT22;64862;54.398;10.126;2023-04-02T13:33:37;6.90;99.90
16968;DHT22;64862;54.398;10.126;2023-04-02T13:43:41;6.80;99.90
16968;DHT22;64862;54.398;10.126;2023-04-02T13:53:45;6.90;99.90
16968;DHT22;64862;54.398;10.126;2023-04-02T14:03:49;7.00;99.90
16968;DHT22;64862;54.398;10.126;2023-04-02T14:24:24;7.10;99.90
16968;DHT22;64862;54.398;10.126;2023-04-02T14:34:35;6.90;99.90
16968;DHT22;64862;54.398;10.126;2023-04-02T14:44:45;6.80;99.90
16968;DHT22;64862;54.398;10.126;2023-04-02T14:54:53;7.10;99.90
16968;DHT22;64862;54.398;10.126;2023-04-02T15:05:02;7.20;99.90
16968;DHT22;64862;54.398;10.126;2023-04-02T15:15:18;7.10;99.90
16968;DHT22;64862;54.398;10.126;2023-04-02T15:25:30;7.00;99.90
16968;DHT22;64862;54.398;10.126;2023-04-02T15:35:37;7.10;99.90
16968;DHT22;64862;54.398;10.126;2023-04-02T15:45:50;7.00;99.90
16968;DHT22;64862;54.398;10.126;2023-04-02T15:56:02;7.00;99.90
16968;DHT22;64862;54.398;10.126;2023-04-02T16:06:23;6.70;99.90
16968;DHT22;64862;54.398;10.126;2023-04-02T16:16:30;6.50;99.90
16968;DHT22;64862;54.398;10.126;2023-04-02T16:26:42;6.60;99.90
16968;DHT22;64862;54.398;10.126;2023-04-02T16:36:53;6.60;99.90
16968;DHT22;64862;54.398;10.126;2023-04-02T16:47:14;6.50;99.90
16968;DHT22;64862;54.398;10.126;2023-04-02T16:57:27;6.50;99.90
16968;DHT22;64862;54.398;10.126;2023-04-02T17:07:39;6.30;99.90
16968;DHT22;64862;54.398;10.126;2023-04-02T17:17:43;6.20;99.90
16968;DHT22;64862;54.398;10.126;2023-04-02T17:27:51;6.10;99.90
16968;DHT22;64862;54.398;10.126;2023-04-02T17:37:59;5.90;99.90
16968;DHT22;64862;54.398;10.126;2023-04-02T17:48:12;5.70;99.90
16968;DHT22;64862;54.398;10.126;2023-04-02T17:58:37;5.70;99.90
16968;DHT22;64862;54.398;10.126;2023-04-02T18:08:53;5.50;99.90
16968;DHT22;64862;54.398;10.126;2023-04-02T18:19:07;5.30;99.90
16968;DHT22;64862;54.398;10.126;2023-04-02T18:29:23;5.20;99.90
16968;DHT22;64862;54.398;10.126;2023-04-02T18:39:35;5.10;99.90
16968;DHT22;64862;54.398;10.126;2023-04-02T18:49:47;4.90;99.90
16968;DHT22;64862;54.398;10.126;2023-04-02T18:59:55;4.80;99.90
16968;DHT22;64862;54.398;10.126;2023-04-02T19:10:05;4.80;99.90
16968;DHT22;64862;54.398;10.126;2023-04-02T19:20:15;4.50;99.90
16968;DHT22;64862;54.398;10.126;2023-04-02T19:30:37;4.40;99.90
16968;DHT22;64862;54.398;10.126;2023-04-02T19:40:43;4.40;99.90
16968;DHT22;64862;54.398;10.126;2023-04-02T19:50:48;4.30;99.90
16968;DHT22;64862;54.398;10.126;2023-04-02T20:00:50;4.20;99.90
16968;DHT22;64862;54.398;10.126;2023-04-02T20:10:54;4.10;99.90
16968;DHT22;64862;54.398;10.126;2023-04-02T20:20:58;3.90;99.90
16968;DHT22;64862;54.398;10.126;2023-04-02T20:31:07;3.50;99.90
16968;DHT22;64862;54.398;10.126;2023-04-02T20:41:09;3.20;99.90
16968;DHT22;64862;54.398;10.126;2023-04-02T20:51:14;2.90;99.90
16968;DHT22;64862;54.398;10.126;2023-04-02T21:01:18;2.70;99.90
16968;DHT22;64862;54.398;10.126;2023-04-02T21:11:23;2.60;99.90
16968;DHT22;64862;54.398;10.126;2023-04-02T21:21:26;2.40;99.90
16968;DHT22;64862;54.398;10.126;2023-04-02T21:31:33;2.20;99.90
16968;DHT22;64862;54.398;10.126;2023-04-02T21:41:36;2.20;99.90
16968;DHT22;64862;54.398;10.126;2023-04-02T21:51:41;2.20;99.90
16968;DHT22;64862;54.398;10.126;2023-04-02T22:01:45;2.10;99.90
16968;DHT22;64862;54.398;10.126;2023-04-02T22:11:50;2.00;99.90
16968;DHT22;64862;54.398;10.126;2023-04-02T22:21:53;1.90;99.90
16968;DHT22;64862;54.398;10.126;2023-04-02T22:31:57;1.90;99.90
16968;DHT22;64862;54.398;10.126;2023-04-02T22:41:59;1.80;99.90
16968;DHT22;64862;54.398;10.126;2023-04-02T22:52:02;1.70;99.90
16968;DHT22;64862;54.398;10.126;2023-04-02T23:02:05;1.70;99.90
16968;DHT22;64862;54.398;10.126;2023-04-02T23:12:09;1.60;99.90
16968;DHT22;64862;54.398;10.126;2023-04-02T23:22:11;1.40;99.90
16968;DHT22;64862;54.398;10.126;2023-04-02T23:32:16;1.40;99.90
16968;DHT22;64862;54.398;10.126;2023-04-02T23:42:19;1.40;99.90
16968;DHT22;64862;54.398;10.126;2023-04-02T23:52:22;1.40;99.90
